sensor_id;sensor_type;location;lat;lon;timestamp;pressure;altitude;pressure_sealevel;temperature;humidity
79586;BME280;69054;50.866;4.636;2023-05-07T00:00:04;101207.25;;;12.34;89.07
79586;BME280;69054;50.866;4.636;2023-05-07T00:02:33;101202.69;;;12.41;89.07
79586;BME280;69054;50.866;4.636;2023-05-07T00:04:58;101202.94;;;12.46;88.62
79586;BME280;69054;50.866;4.636;2023-05-07T00:07:23;101196.41;;;12.47;88.38
79586;BME280;69054;50.866;4.636;2023-05-07T00:09:49;101196.81;;;12.44;88.46
79586;BME280;69054;50.866;4.636;2023-05-07T00:12:14;101194.06;;;12.44;88.40
79586;BME280;69054;50.866;4.636;2023-05-07T00:14:40;101190.88;;;12.40;88.62
79586;BME280;69054;50.866;4.636;2023-05-07T00:17:06;101194.66;;;12.39;89.00
79586;BME280;69054;50.866;4.636;2023-05-07T00:19:31;101191.28;;;12.37;88.74
79586;BME280;69054;50.866;4.636;2023-05-07T00:21:57;101194.22;;;12.36;88.81
79586;BME280;69054;50.866;4.636;2023-05-07T00:24:23;101187.88;;;12.35;88.92
79586;BME280;69054;50.866;4.636;2023-05-07T00:26:49;101179.00;;;12.33;89.14
79586;BME280;69054;50.866;4.636;2023-05-07T00:29:15;101178.38;;;12.31;89.10
79586;BME280;69054;50.866;4.636;2023-05-07T00:31:40;101176.47;;;12.32;89.05
79586;BME280;69054;50.866;4.636;2023-05-07T00:34:06;101171.81;;;12.32;89.06
79586;BME280;69054;50.866;4.636;2023-05-07T00:36:31;101165.31;;;12.33;89.06
79586;BME280;69054;50.866;4.636;2023-05-07T00:38:59;101160.66;;;12.34;89.45
79586;BME280;69054;50.866;4.636;2023-05-07T00:41:26;101154.16;;;12.35;89.22
79586;BME280;69054;50.866;4.636;2023-05-07T00:43:51;101153.31;;;12.34;89.34
79586;BME280;69054;50.866;4.636;2023-05-07T00:46:18;101149.91;;;12.32;89.50
79586;BME280;69054;50.866;4.636;2023-05-07T00:48:45;101153.31;;;12.34;89.66
79586;BME280;69054;50.866;4.636;2023-05-07T00:51:10;101156.25;;;12.33;89.74
79586;BME280;69054;50.866;4.636;2023-05-07T00:53:36;101149.69;;;12.34;89.84
79586;BME280;69054;50.866;4.636;2023-05-07T00:56:02;101146.97;;;12.34;89.90
79586;BME280;69054;50.866;4.636;2023-05-07T00:58:28;101150.56;;;12.34;89.75
79586;BME280;69054;50.866;4.636;2023-05-07T01:00:53;101154.16;;;12.35;89.86
79586;BME280;69054;50.866;4.636;2023-05-07T01:03:19;101149.50;;;12.35;89.75
79586;BME280;69054;50.866;4.636;2023-05-07T01:05:45;101153.75;;;12.38;89.87
79586;BME280;69054;50.866;4.636;2023-05-07T01:08:13;101143.81;;;12.37;89.82
79586;BME280;69054;50.866;4.636;2023-05-07T01:10:40;101136.66;;;12.36;89.93
79586;BME280;69054;50.866;4.636;2023-05-07T01:13:09;101133.94;;;12.36;89.86
79586;BME280;69054;50.866;4.636;2023-05-07T01:15:35;101137.50;;;12.36;89.90
79586;BME280;69054;50.866;4.636;2023-05-07T01:18:01;101133.94;;;12.36;89.97
79586;BME280;69054;50.866;4.636;2023-05-07T01:20:28;101133.13;;;12.42;90.53
79586;BME280;69054;50.866;4.636;2023-05-07T01:22:53;101131.69;;;12.46;90.26
79586;BME280;69054;50.866;4.636;2023-05-07T01:25:19;101137.38;;;12.45;89.95
79586;BME280;69054;50.866;4.636;2023-05-07T01:27:45;101129.75;;;12.40;90.10
79586;BME280;69054;50.866;4.636;2023-05-07T01:30:12;101133.53;;;12.39;89.98
79586;BME280;69054;50.866;4.636;2023-05-07T01:32:43;101127.59;;;12.35;90.22
79586;BME280;69054;50.866;4.636;2023-05-07T01:35:15;101131.38;;;12.34;90.19
79586;BME280;69054;50.866;4.636;2023-05-07T01:37:42;101133.94;;;12.36;90.59
79586;BME280;69054;50.866;4.636;2023-05-07T01:40:08;101131.81;;;12.38;90.54
79586;BME280;69054;50.866;4.636;2023-05-07T01:42:35;101133.53;;;12.39;90.36
79586;BME280;69054;50.866;4.636;2023-05-07T01:45:00;101131.81;;;12.38;90.23
79586;BME280;69054;50.866;4.636;2023-05-07T01:47:26;101133.94;;;12.36;90.26
79586;BME280;69054;50.866;4.636;2023-05-07T01:49:52;101136.66;;;12.36;90.39
79586;BME280;69054;50.866;4.636;2023-05-07T01:52:17;101134.31;;;12.33;90.48
79586;BME280;69054;50.866;4.636;2023-05-07T01:54:43;101136.41;;;12.31;90.54
79586;BME280;69054;50.866;4.636;2023-05-07T01:57:08;101139.13;;;12.31;90.74
79586;BME280;69054;50.866;4.636;2023-05-07T01:59:33;101134.72;;;12.30;90.77
79586;BME280;69054;50.866;4.636;2023-05-07T02:01:59;101142.09;;;12.29;90.56
79586;BME280;69054;50.866;4.636;2023-05-07T02:04:24;101139.34;;;12.29;90.71
79586;BME280;69054;50.866;4.636;2023-05-07T02:06:49;101133.03;;;12.29;90.96
79586;BME280;69054;50.866;4.636;2023-05-07T02:09:15;101138.50;;;12.29;91.28
79586;BME280;69054;50.866;4.636;2023-05-07T02:11:41;101134.94;;;12.28;91.59
79586;BME280;69054;50.866;4.636;2023-05-07T02:14:06;101146.09;;;12.27;91.74
79586;BME280;69054;50.866;4.636;2023-05-07T02:16:31;101140.59;;;12.27;91.77
79586;BME280;69054;50.866;4.636;2023-05-07T02:18:57;101133.41;;;12.25;91.60
79586;BME280;69054;50.866;4.636;2023-05-07T02:21:23;101144.38;;;12.25;91.71
79586;BME280;69054;50.866;4.636;2023-05-07T02:23:49;101139.75;;;12.26;91.50
79586;BME280;69054;50.866;4.636;2023-05-07T02:26:14;101145.88;;;12.28;91.42
79586;BME280;69054;50.866;4.636;2023-05-07T02:28:39;101138.50;;;12.29;91.51
79586;BME280;69054;50.866;4.636;2023-05-07T02:31:05;101141.03;;;12.30;91.17
79586;BME280;69054;50.866;4.636;2023-05-07T02:33:30;101139.81;;;12.33;91.45
79586;BME280;69054;50.866;4.636;2023-05-07T02:35:56;101143.81;;;12.37;91.21
79586;BME280;69054;50.866;4.636;2023-05-07T02:38:22;101133.34;;;12.40;91.59
79586;BME280;69054;50.866;4.636;2023-05-07T02:40:47;101137.78;;;12.41;91.59
79586;BME280;69054;50.866;4.636;2023-05-07T02:43:13;101142.00;;;12.44;91.61
79586;BME280;69054;50.866;4.636;2023-05-07T02:45:38;101132.72;;;12.45;91.43
79586;BME280;69054;50.866;4.636;2023-05-07T02:48:04;101133.38;;;12.47;91.10
79586;BME280;69054;50.866;4.636;2023-05-07T02:50:31;101122.09;;;12.35;91.31
79586;BME280;69054;50.866;4.636;2023-05-07T02:52:58;101123.25;;;12.19;91.76
79586;BME280;69054;50.866;4.636;2023-05-07T02:55:23;101124.78;;;12.00;92.16
79586;BME280;69054;50.866;4.636;2023-05-07T02:57:49;101127.09;;;11.82;92.55
79586;BME280;69054;50.866;4.636;2023-05-07T03:00:17;101129.25;;;11.65;92.75
79586;BME280;69054;50.866;4.636;2023-05-07T03:02:44;101131.84;;;11.51;93.68
79586;BME280;69054;50.866;4.636;2023-05-07T03:05:10;101134.97;;;11.48;94.74
79586;BME280;69054;50.866;4.636;2023-05-07T03:07:36;101143.63;;;11.52;95.34
79586;BME280;69054;50.866;4.636;2023-05-07T03:10:02;101146.44;;;11.59;95.14
79586;BME280;69054;50.866;4.636;2023-05-07T03:12:27;101143.59;;;11.67;95.18
79586;BME280;69054;50.866;4.636;2023-05-07T03:14:53;101150.63;;;11.76;94.65
79586;BME280;69054;50.866;4.636;2023-05-07T03:17:18;101143.72;;;11.80;94.46
79586;BME280;69054;50.866;4.636;2023-05-07T03:19:44;101144.44;;;11.89;94.09
79586;BME280;69054;50.866;4.636;2023-05-07T03:22:09;101148.53;;;11.93;93.50
79586;BME280;69054;50.866;4.636;2023-05-07T03:24:35;101150.00;;;11.96;93.21
79586;BME280;69054;50.866;4.636;2023-05-07T03:27:00;101151.53;;;11.98;93.09
79586;BME280;69054;50.866;4.636;2023-05-07T03:29:26;101150.94;;;12.03;93.04
79586;BME280;69054;50.866;4.636;2023-05-07T03:31:51;101150.53;;;12.06;92.84
79586;BME280;69054;50.866;4.636;2023-05-07T03:34:17;101142.13;;;12.07;92.79
79586;BME280;69054;50.866;4.636;2023-05-07T03:36:49;101145.69;;;12.08;92.80
79586;BME280;69054;50.866;4.636;2023-05-07T03:39:14;101145.69;;;12.08;92.89
79586;BME280;69054;50.866;4.636;2023-05-07T03:41:40;101151.84;;;12.10;92.79
79586;BME280;69054;50.866;4.636;2023-05-07T03:44:05;101157.56;;;12.15;92.90
79586;BME280;69054;50.866;4.636;2023-05-07T03:46:31;101158.69;;;12.21;92.54
79586;BME280;69054;50.866;4.636;2023-05-07T03:48:58;101151.97;;;12.23;92.19
79586;BME280;69054;50.866;4.636;2023-05-07T03:51:23;101154.69;;;12.23;92.14
79586;BME280;69054;50.866;4.636;2023-05-07T03:53:49;101153.19;;;12.21;92.02
79586;BME280;69054;50.866;4.636;2023-05-07T03:56:14;101156.78;;;12.21;91.95
79586;BME280;69054;50.866;4.636;2023-05-07T03:58:39;101158.69;;;12.21;92.09
79586;BME280;69054;50.866;4.636;2023-05-07T04:01:05;101155.94;;;12.21;92.28
79586;BME280;69054;50.866;4.636;2023-05-07T04:03:30;101152.34;;;12.20;92.10
79586;BME280;69054;50.866;4.636;2023-05-07T04:05:56;101150.47;;;12.21;92.20
79586;BME280;69054;50.866;4.636;2023-05-07T04:08:21;101161.22;;;12.22;92.01
79586;BME280;69054;50.866;4.636;2023-05-07T04:10:46;101162.06;;;12.23;92.17
79586;BME280;69054;50.866;4.636;2023-05-07T04:13:12;101151.09;;;12.23;92.21
79586;BME280;69054;50.866;4.636;2023-05-07T04:15:38;101155.94;;;12.21;92.35
79586;BME280;69054;50.866;4.636;2023-05-07T04:18:03;101144.34;;;12.19;92.30
79586;BME280;69054;50.866;4.636;2023-05-07T04:20:29;101146.41;;;12.17;92.40
79586;BME280;69054;50.866;4.636;2023-05-07T04:22:54;101151.06;;;12.16;92.54
79586;BME280;69054;50.866;4.636;2023-05-07T04:25:20;101144.25;;;12.12;92.66
79586;BME280;69054;50.866;4.636;2023-05-07T04:27:46;101142.94;;;12.08;92.85
79586;BME280;69054;50.866;4.636;2023-05-07T04:30:12;101144.22;;;12.05;92.95
79586;BME280;69054;50.866;4.636;2023-05-07T04:32:37;101138.25;;;12.02;93.11
79586;BME280;69054;50.866;4.636;2023-05-07T04:35:04;101136.13;;;11.97;93.51
79586;BME280;69054;50.866;4.636;2023-05-07T04:37:31;101140.31;;;11.93;93.35
79586;BME280;69054;50.866;4.636;2023-05-07T04:39:57;101132.47;;;11.90;93.68
79586;BME280;69054;50.866;4.636;2023-05-07T04:42:22;101134.34;;;11.89;93.84
79586;BME280;69054;50.866;4.636;2023-05-07T04:44:52;101136.88;;;11.91;93.68
79586;BME280;69054;50.866;4.636;2023-05-07T04:47:18;101144.41;;;12.04;93.66
79586;BME280;69054;50.866;4.636;2023-05-07T04:49:43;101152.09;;;12.15;92.86
79586;BME280;69054;50.866;4.636;2023-05-07T04:52:09;101149.47;;;12.29;92.57
79586;BME280;69054;50.866;4.636;2023-05-07T04:54:34;101146.00;;;12.41;91.88
79586;BME280;69054;50.866;4.636;2023-05-07T04:57:00;101153.44;;;12.54;91.15
79586;BME280;69054;50.866;4.636;2023-05-07T04:59:25;101158.19;;;12.67;90.42
79586;BME280;69054;50.866;4.636;2023-05-07T05:01:51;101161.19;;;12.79;89.84
79586;BME280;69054;50.866;4.636;2023-05-07T05:04:16;101160.44;;;12.92;89.22
79586;BME280;69054;50.866;4.636;2023-05-07T05:06:42;101160.06;;;13.02;88.64
79586;BME280;69054;50.866;4.636;2023-05-07T05:09:07;101167.47;;;13.08;88.51
79586;BME280;69054;50.866;4.636;2023-05-07T05:11:32;101167.34;;;13.16;87.96
79586;BME280;69054;50.866;4.636;2023-05-07T05:13:59;101166.50;;;13.22;87.49
79586;BME280;69054;50.866;4.636;2023-05-07T05:16:25;101173.28;;;13.26;87.05
79586;BME280;69054;50.866;4.636;2023-05-07T05:18:51;101170.78;;;13.31;86.76
79586;BME280;69054;50.866;4.636;2023-05-07T05:21:17;101168.75;;;13.40;86.49
79586;BME280;69054;50.866;4.636;2023-05-07T05:23:42;101168.53;;;13.48;86.38
79586;BME280;69054;50.866;4.636;2023-05-07T05:26:08;101166.47;;;13.57;85.82
79586;BME280;69054;50.866;4.636;2023-05-07T05:28:33;101168.38;;;13.63;85.75
79586;BME280;69054;50.866;4.636;2023-05-07T05:30:59;101177.50;;;13.71;85.41
79586;BME280;69054;50.866;4.636;2023-05-07T05:33:24;101182.56;;;13.74;85.32
79586;BME280;69054;50.866;4.636;2023-05-07T05:35:50;101186.16;;;13.74;84.85
79586;BME280;69054;50.866;4.636;2023-05-07T05:38:15;101188.28;;;13.72;85.07
79586;BME280;69054;50.866;4.636;2023-05-07T05:40:41;101195.84;;;13.63;85.45
79586;BME280;69054;50.866;4.636;2023-05-07T05:43:06;101207.28;;;13.74;85.53
79586;BME280;69054;50.866;4.636;2023-05-07T05:45:32;101199.50;;;13.84;85.32
79586;BME280;69054;50.866;4.636;2023-05-07T05:47:57;101207.78;;;13.97;84.88
79586;BME280;69054;50.866;4.636;2023-05-07T05:50:23;101202.72;;;14.08;83.84
79586;BME280;69054;50.866;4.636;2023-05-07T05:52:48;101206.72;;;14.18;84.02
79586;BME280;69054;50.866;4.636;2023-05-07T05:55:14;101213.31;;;14.24;83.73
79586;BME280;69054;50.866;4.636;2023-05-07T05:57:39;101216.50;;;14.28;83.54
79586;BME280;69054;50.866;4.636;2023-05-07T06:00:06;101208.88;;;14.30;83.42
79586;BME280;69054;50.866;4.636;2023-05-07T06:02:31;101215.00;;;14.32;83.27
79586;BME280;69054;50.866;4.636;2023-05-07T06:04:57;101206.75;;;14.32;83.23
79586;BME280;69054;50.866;4.636;2023-05-07T06:07:22;101215.44;;;14.35;83.04
79586;BME280;69054;50.866;4.636;2023-05-07T06:09:47;101215.88;;;14.32;83.05
79586;BME280;69054;50.866;4.636;2023-05-07T06:12:13;101210.78;;;14.36;83.55
79586;BME280;69054;50.866;4.636;2023-05-07T06:14:38;101213.94;;;14.40;83.20
79586;BME280;69054;50.866;4.636;2023-05-07T06:17:03;101222.00;;;14.48;82.47
79586;BME280;69054;50.866;4.636;2023-05-07T06:19:29;101223.28;;;14.52;82.24
79586;BME280;69054;50.866;4.636;2023-05-07T06:21:54;101223.25;;;14.59;82.05
79586;BME280;69054;50.866;4.636;2023-05-07T06:24:21;101225.19;;;14.58;81.58
79586;BME280;69054;50.866;4.636;2023-05-07T06:26:47;101226.88;;;14.52;82.17
79586;BME280;69054;50.866;4.636;2023-05-07T06:29:13;101239.13;;;14.50;82.35
79586;BME280;69054;50.866;4.636;2023-05-07T06:31:38;101250.53;;;14.33;81.96
79586;BME280;69054;50.866;4.636;2023-05-07T06:34:03;101249.03;;;14.24;82.73
79586;BME280;69054;50.866;4.636;2023-05-07T06:36:30;101252.66;;;14.31;83.39
79586;BME280;69054;50.866;4.636;2023-05-07T06:38:55;101245.03;;;14.33;82.55
79586;BME280;69054;50.866;4.636;2023-05-07T06:41:20;101248.22;;;14.44;82.37
79586;BME280;69054;50.866;4.636;2023-05-07T06:43:46;101256.47;;;14.57;82.23
79586;BME280;69054;50.866;4.636;2023-05-07T06:46:12;101258.19;;;14.71;81.48
79586;BME280;69054;50.866;4.636;2023-05-07T06:48:37;101259.47;;;14.82;80.79
79586;BME280;69054;50.866;4.636;2023-05-07T06:51:03;101261.97;;;14.97;79.41
79586;BME280;69054;50.866;4.636;2023-05-07T06:53:28;101265.38;;;15.13;79.04
79586;BME280;69054;50.866;4.636;2023-05-07T06:55:56;101269.78;;;15.34;77.77
79586;BME280;69054;50.866;4.636;2023-05-07T06:58:21;101263.81;;;15.43;76.90
79586;BME280;69054;50.866;4.636;2023-05-07T07:00:46;101263.53;;;15.58;76.79
79586;BME280;69054;50.866;4.636;2023-05-07T07:03:12;101254.16;;;15.73;76.24
79586;BME280;69054;50.866;4.636;2023-05-07T07:05:37;101261.28;;;15.94;75.71
79586;BME280;69054;50.866;4.636;2023-05-07T07:08:02;101272.66;;;16.11;74.78
79586;BME280;69054;50.866;4.636;2023-05-07T07:10:28;101257.34;;;16.15;75.04
79586;BME280;69054;50.866;4.636;2023-05-07T07:12:53;101264.28;;;16.24;73.97
79586;BME280;69054;50.866;4.636;2023-05-07T07:15:19;101266.97;;;16.38;74.17
79586;BME280;69054;50.866;4.636;2023-05-07T07:17:46;101263.31;;;16.44;73.75
79586;BME280;69054;50.866;4.636;2023-05-07T07:20:11;101262.88;;;16.47;74.42
79586;BME280;69054;50.866;4.636;2023-05-07T07:22:37;101267.38;;;16.41;74.57
79586;BME280;69054;50.866;4.636;2023-05-07T07:25:02;101266.13;;;16.37;75.16
79586;BME280;69054;50.866;4.636;2023-05-07T07:27:28;101267.38;;;16.41;75.27
79586;BME280;69054;50.866;4.636;2023-05-07T07:29:53;101259.44;;;16.52;76.24
79586;BME280;69054;50.866;4.636;2023-05-07T07:32:19;101268.97;;;16.56;75.02
79586;BME280;69054;50.866;4.636;2023-05-07T07:34:44;101267.47;;;16.60;75.41
79586;BME280;69054;50.866;4.636;2023-05-07T07:37:09;101263.44;;;16.56;75.03
79586;BME280;69054;50.866;4.636;2023-05-07T07:39:35;101267.19;;;16.36;75.04
79586;BME280;69054;50.866;4.636;2023-05-07T07:42:02;101262.31;;;16.38;76.84
79586;BME280;69054;50.866;4.636;2023-05-07T07:44:28;101271.22;;;16.40;77.32
79586;BME280;69054;50.866;4.636;2023-05-07T07:46:54;101267.56;;;16.14;77.27
79586;BME280;69054;50.866;4.636;2023-05-07T07:49:19;101265.59;;;16.22;77.51
79586;BME280;69054;50.866;4.636;2023-05-07T07:51:45;101270.91;;;16.17;77.79
79586;BME280;69054;50.866;4.636;2023-05-07T07:54:10;101271.78;;;16.17;78.00
79586;BME280;69054;50.866;4.636;2023-05-07T07:56:36;101272.25;;;16.07;79.59
79586;BME280;69054;50.866;4.636;2023-05-07T07:59:01;101280.53;;;16.07;79.42
79586;BME280;69054;50.866;4.636;2023-05-07T08:01:29;101280.94;;;16.11;79.16
79586;BME280;69054;50.866;4.636;2023-05-07T08:03:55;101281.16;;;16.09;80.86
79586;BME280;69054;50.866;4.636;2023-05-07T08:06:20;101280.53;;;16.07;80.79
79586;BME280;69054;50.866;4.636;2023-05-07T08:08:46;101279.03;;;16.11;80.67
79586;BME280;69054;50.866;4.636;2023-05-07T08:11:11;101284.69;;;16.17;80.82
79586;BME280;69054;50.866;4.636;2023-05-07T08:13:37;101286.19;;;16.19;80.13
79586;BME280;69054;50.866;4.636;2023-05-07T08:16:04;101292.97;;;16.17;80.01
79586;BME280;69054;50.866;4.636;2023-05-07T08:18:29;101291.97;;;16.11;80.74
79586;BME280;69054;50.866;4.636;2023-05-07T08:20:55;101293.25;;;16.08;81.72
79586;BME280;69054;50.866;4.636;2023-05-07T08:23:21;101296.38;;;16.19;81.91
79586;BME280;69054;50.866;4.636;2023-05-07T08:25:46;101303.13;;;16.23;80.32
79586;BME280;69054;50.866;4.636;2023-05-07T08:28:11;101301.88;;;16.19;80.91
79586;BME280;69054;50.866;4.636;2023-05-07T08:30:37;101309.50;;;16.17;82.82
79586;BME280;69054;50.866;4.636;2023-05-07T08:33:02;101315.41;;;16.27;82.75
79586;BME280;69054;50.866;4.636;2023-05-07T08:35:28;101314.56;;;16.26;82.96
79586;BME280;69054;50.866;4.636;2023-05-07T08:37:54;101319.00;;;16.27;83.15
79586;BME280;69054;50.866;4.636;2023-05-07T08:40:23;101325.50;;;16.01;83.72
79586;BME280;69054;50.866;4.636;2023-05-07T08:42:52;101335.25;;;15.97;83.83
79586;BME280;69054;50.866;4.636;2023-05-07T08:45:19;101330.00;;;15.89;83.29
79586;BME280;69054;50.866;4.636;2023-05-07T08:47:47;101334.47;;;15.90;84.20
79586;BME280;69054;50.866;4.636;2023-05-07T08:50:15;101334.03;;;15.86;84.52
79586;BME280;69054;50.866;4.636;2023-05-07T08:52:41;101333.59;;;15.76;84.43
79586;BME280;69054;50.866;4.636;2023-05-07T08:55:09;101332.97;;;15.87;84.77
79586;BME280;69054;50.866;4.636;2023-05-07T08:57:35;101342.97;;;15.68;83.31
79586;BME280;69054;50.866;4.636;2023-05-07T09:00:02;101340.66;;;15.58;84.72
79586;BME280;69054;50.866;4.636;2023-05-07T09:02:28;101348.28;;;15.63;85.41
79586;BME280;69054;50.866;4.636;2023-05-07T09:04:53;101343.41;;;15.72;85.14
79586;BME280;69054;50.866;4.636;2023-05-07T09:07:20;101353.16;;;15.81;85.47
79586;BME280;69054;50.866;4.636;2023-05-07T09:09:46;101352.00;;;15.95;85.20
79586;BME280;69054;50.866;4.636;2023-05-07T09:12:11;101348.94;;;16.24;85.13
79586;BME280;69054;50.866;4.636;2023-05-07T09:14:38;101348.59;;;16.45;83.51
79586;BME280;69054;50.866;4.636;2023-05-07T09:17:03;101354.94;;;16.53;82.92
79586;BME280;69054;50.866;4.636;2023-05-07T09:19:29;101352.97;;;16.60;83.25
79586;BME280;69054;50.866;4.636;2023-05-07T09:22:03;101356.25;;;16.43;83.88
79586;BME280;69054;50.866;4.636;2023-05-07T09:24:28;101353.50;;;16.43;83.88
79586;BME280;69054;50.866;4.636;2023-05-07T09:26:58;101349.25;;;16.47;84.35
79586;BME280;69054;50.866;4.636;2023-05-07T09:29:25;101354.75;;;16.47;83.90
79586;BME280;69054;50.866;4.636;2023-05-07T09:31:50;101351.00;;;16.35;84.11
79586;BME280;69054;50.866;4.636;2023-05-07T09:34:16;101354.41;;;16.30;82.91
79586;BME280;69054;50.866;4.636;2023-05-07T09:36:41;101361.06;;;16.16;84.70
79586;BME280;69054;50.866;4.636;2023-05-07T09:39:07;101363.25;;;15.94;84.28
79586;BME280;69054;50.866;4.636;2023-05-07T09:41:33;101364.38;;;15.79;85.51
79586;BME280;69054;50.866;4.636;2023-05-07T09:44:07;101360.56;;;15.81;85.18
79586;BME280;69054;50.866;4.636;2023-05-07T09:46:36;101369.66;;;15.81;86.92
79586;BME280;69054;50.866;4.636;2023-05-07T09:49:06;101366.88;;;15.88;86.09
79586;BME280;69054;50.866;4.636;2023-05-07T09:51:39;101367.09;;;15.93;86.39
79586;BME280;69054;50.866;4.636;2023-05-07T09:54:06;101374.53;;;15.79;84.08
79586;BME280;69054;50.866;4.636;2023-05-07T09:56:33;101374.56;;;15.66;85.46
79586;BME280;69054;50.866;4.636;2023-05-07T09:59:03;101381.53;;;15.68;86.24
79586;BME280;69054;50.866;4.636;2023-05-07T10:01:30;101381.31;;;15.70;85.51
79586;BME280;69054;50.866;4.636;2023-05-07T10:03:57;101385.16;;;15.62;85.54
79586;BME280;69054;50.866;4.636;2023-05-07T10:06:24;101382.84;;;15.52;87.28
79586;BME280;69054;50.866;4.636;2023-05-07T10:08:51;101386.41;;;15.66;88.04
79586;BME280;69054;50.866;4.636;2023-05-07T10:11:17;101388.94;;;15.74;86.24
79586;BME280;69054;50.866;4.636;2023-05-07T10:13:43;101389.16;;;15.73;87.20
79586;BME280;69054;50.866;4.636;2023-05-07T10:16:08;101391.28;;;15.77;87.71
79586;BME280;69054;50.866;4.636;2023-05-07T10:18:34;101392.34;;;15.83;88.38
79586;BME280;69054;50.866;4.636;2023-05-07T10:21:21;101393.38;;;15.89;87.87
79586;BME280;69054;50.866;4.636;2023-05-07T10:23:50;101394.47;;;15.81;88.63
79586;BME280;69054;50.866;4.636;2023-05-07T10:26:17;101396.13;;;15.75;89.27
79586;BME280;69054;50.866;4.636;2023-05-07T10:28:46;101399.75;;;15.69;88.38
79586;BME280;69054;50.866;4.636;2023-05-07T10:34:19;101401.88;;;15.67;88.34
79586;BME280;69054;50.866;4.636;2023-05-07T10:36:49;101404.22;;;15.84;87.90
79586;BME280;69054;50.866;4.636;2023-05-07T10:39:15;101405.03;;;15.91;87.46
79586;BME280;69054;50.866;4.636;2023-05-07T10:41:41;101406.94;;;15.90;85.61
79586;BME280;69054;50.866;4.636;2023-05-07T10:44:06;101405.50;;;15.81;86.34
79586;BME280;69054;50.866;4.636;2023-05-07T10:46:32;101406.72;;;15.92;87.49
79586;BME280;69054;50.866;4.636;2023-05-07T10:51:30;101417.56;;;15.87;86.51
79586;BME280;69054;50.866;4.636;2023-05-07T10:56:35;101411.75;;;16.15;88.23
79586;BME280;69054;50.866;4.636;2023-05-07T11:01:58;101411.25;;;16.38;86.11
79586;BME280;69054;50.866;4.636;2023-05-07T11:04:24;101406.28;;;16.54;84.88
79586;BME280;69054;50.866;4.636;2023-05-07T11:10:01;101400.50;;;16.62;83.90
79586;BME280;69054;50.866;4.636;2023-05-07T11:15:04;101401.38;;;16.56;83.44
79586;BME280;69054;50.866;4.636;2023-05-07T11:17:29;101408.16;;;16.60;84.08
79586;BME280;69054;50.866;4.636;2023-05-07T11:20:00;101404.06;;;16.69;83.60
79586;BME280;69054;50.866;4.636;2023-05-07T11:25:03;101415.63;;;16.84;84.68
79586;BME280;69054;50.866;4.636;2023-05-07T11:27:29;101412.00;;;16.97;83.64
79586;BME280;69054;50.866;4.636;2023-05-07T11:29:55;101413.72;;;16.92;81.39
79586;BME280;69054;50.866;4.636;2023-05-07T11:32:29;101412.66;;;16.93;84.16
79586;BME280;69054;50.866;4.636;2023-05-07T11:34:57;101407.00;;;17.06;82.39
79586;BME280;69054;50.866;4.636;2023-05-07T11:37:24;101407.50;;;17.28;83.49
79586;BME280;69054;50.866;4.636;2023-05-07T11:39:50;101403.63;;;17.54;82.13
79586;BME280;69054;50.866;4.636;2023-05-07T11:42:35;101407.59;;;17.84;79.85
79586;BME280;69054;50.866;4.636;2023-05-07T11:45:03;101406.91;;;17.88;80.75
79586;BME280;69054;50.866;4.636;2023-05-07T11:47:32;101412.78;;;17.99;79.38
79586;BME280;69054;50.866;4.636;2023-05-07T11:50:03;101408.38;;;17.91;81.06
79586;BME280;69054;50.866;4.636;2023-05-07T11:52:30;101410.81;;;17.81;79.73
79586;BME280;69054;50.866;4.636;2023-05-07T11:54:56;101414.72;;;17.73;79.78
79586;BME280;69054;50.866;4.636;2023-05-07T11:57:23;101413.41;;;17.76;78.85
79586;BME280;69054;50.866;4.636;2023-05-07T12:00:01;101407.44;;;17.79;79.30
79586;BME280;69054;50.866;4.636;2023-05-07T12:02:30;101410.94;;;17.93;79.75
79586;BME280;69054;50.866;4.636;2023-05-07T12:04:56;101417.97;;;17.88;78.87
79586;BME280;69054;50.866;4.636;2023-05-07T12:07:24;101410.28;;;17.72;80.04
79586;BME280;69054;50.866;4.636;2023-05-07T12:09:50;101412.94;;;17.79;79.73
79586;BME280;69054;50.866;4.636;2023-05-07T12:12:15;101419.41;;;17.72;79.73
79586;BME280;69054;50.866;4.636;2023-05-07T12:14:43;101420.50;;;17.71;79.91
79586;BME280;69054;50.866;4.636;2023-05-07T12:17:10;101416.88;;;17.71;78.95
79586;BME280;69054;50.866;4.636;2023-05-07T12:19:39;101419.06;;;17.62;78.70
79586;BME280;69054;50.866;4.636;2023-05-07T12:22:05;101420.53;;;17.65;78.37
79586;BME280;69054;50.866;4.636;2023-05-07T12:24:48;101421.31;;;17.72;79.84
79586;BME280;69054;50.866;4.636;2023-05-07T12:27:16;101420.19;;;17.80;80.50
79586;BME280;69054;50.866;4.636;2023-05-07T12:29:48;101419.38;;;17.98;80.13
79586;BME280;69054;50.866;4.636;2023-05-07T12:32:15;101422.63;;;17.88;79.03
79586;BME280;69054;50.866;4.636;2023-05-07T12:34:41;101425.56;;;17.74;79.73
79586;BME280;69054;50.866;4.636;2023-05-07T12:37:07;101417.63;;;17.60;80.61
79586;BME280;69054;50.866;4.636;2023-05-07T12:39:32;101417.22;;;17.56;80.77
79586;BME280;69054;50.866;4.636;2023-05-07T12:41:59;101419.34;;;17.35;79.85
79586;BME280;69054;50.866;4.636;2023-05-07T12:44:29;101418.25;;;17.36;81.97
79586;BME280;69054;50.866;4.636;2023-05-07T12:46:55;101428.63;;;17.41;80.30
79586;BME280;69054;50.866;4.636;2023-05-07T12:49:20;101425.72;;;17.54;81.06
79586;BME280;69054;50.866;4.636;2023-05-07T12:51:49;101417.66;;;17.53;81.23
79586;BME280;69054;50.866;4.636;2023-05-07T12:54:34;101433.75;;;17.63;81.16
79586;BME280;69054;50.866;4.636;2023-05-07T12:57:05;101427.22;;;17.57;81.35
79586;BME280;69054;50.866;4.636;2023-05-07T12:59:41;101427.59;;;17.61;81.57
79586;BME280;69054;50.866;4.636;2023-05-07T13:02:07;101429.38;;;17.73;81.34
79586;BME280;69054;50.866;4.636;2023-05-07T13:04:33;101427.69;;;17.72;79.78